Time;durP1;ratioP1;P1;durP2;ratioP2;P2;SDS_P1;SDS_P2;PMS_P1;PMS_P2;Temp;Humidity;BMP_temperature;BMP_pressure;BME280_temperature;BME280_humidity;BME280_pressure;Samples;Min_cycle;Max_cycle;Signal;HPM_P1;HPM_P2
2023/09/10 00:00:45;;;;;;;11.35;5.75;;;22.30;99.90;;;;;;7390236;19;21293;-75
2023/09/10 00:03:11;;;;;;;7.45;5.57;;;22.20;99.90;;;;;;7389086;19;20166;-76
2023/09/10 00:05:37;;;;;;;9.38;6.18;;;22.10;99.90;;;;;;7388651;19;20147;-76
2023/09/10 00:08:04;;;;;;;8.23;5.93;;;22.10;99.90;;;;;;7391890;19;20141;-76
2023/09/10 00:10:29;;;;;;;13.95;6.60;;;22.20;99.90;;;;;;7389315;19;20146;-76
2023/09/10 00:12:58;;;;;;;7.80;5.55;;;22.20;99.90;;;;;;7389448;19;20127;-76
2023/09/10 00:15:24;;;;;;;9.00;5.60;;;22.20;99.90;;;;;;7391271;19;20478;-76
2023/09/10 00:17:51;;;;;;;7.60;5.95;;;22.30;99.90;;;;;;7388711;19;20150;-76
2023/09/10 00:20:17;;;;;;;10.25;6.80;;;22.20;99.90;;;;;;7390860;19;20119;-76
2023/09/10 00:22:43;;;;;;;8.15;6.18;;;22.10;99.90;;;;;;7389277;19;20155;-77
2023/09/10 00:25:10;;;;;;;7.03;5.63;;;22.00;99.90;;;;;;7390219;19;20130;-76
2023/09/10 00:27:36;;;;;;;8.35;5.85;;;22.00;99.90;;;;;;7391084;19;20131;-75
2023/09/10 00:30:03;;;;;;;7.28;5.82;;;22.20;99.90;;;;;;7390454;19;20255;-75
2023/09/10 00:32:29;;;;;;;9.60;5.82;;;22.40;99.90;;;;;;7389574;19;20154;-76
2023/09/10 00:34:55;;;;;;;8.93;6.13;;;22.20;99.90;;;;;;7391652;19;20145;-75
2023/09/10 00:37:21;;;;;;;10.07;5.85;;;21.90;99.90;;;;;;7388650;19;20127;-76
2023/09/10 00:39:47;;;;;;;6.78;5.65;;;21.90;99.90;;;;;;7388886;19;20142;-75
2023/09/10 00:42:13;;;;;;;10.90;6.63;;;21.90;99.90;;;;;;7388540;19;20242;-75
2023/09/10 00:44:40;;;;;;;8.90;6.60;;;22.10;99.90;;;;;;7392409;19;20550;-77
2023/09/10 00:47:06;;;;;;;10.45;5.90;;;22.20;99.90;;;;;;7381832;19;20176;-76
2023/09/10 00:49:32;;;;;;;7.15;5.88;;;22.30;99.90;;;;;;7389975;19;20131;-75
2023/09/10 00:52:03;;;;;;;8.98;5.88;;;22.20;99.90;;;;;;7387989;19;20150;-76
2023/09/10 00:54:32;;;;;;;7.63;5.95;;;22.20;99.90;;;;;;7384393;19;20167;-76
2023/09/10 00:57:00;;;;;;;6.95;5.93;;;22.20;99.90;;;;;;7386857;19;20146;-75
2023/09/10 00:59:27;;;;;;;9.50;5.68;;;22.30;99.90;;;;;;7389666;19;20145;-76
2023/09/10 01:01:53;;;;;;;10.60;5.63;;;22.50;99.90;;;;;;7390818;19;20442;-75
2023/09/10 01:04:22;;;;;;;8.73;6.25;;;22.70;99.90;;;;;;7388913;19;20154;-76
2023/09/10 01:06:50;;;;;;;6.95;5.25;;;22.60;99.90;;;;;;7391451;19;20142;-75
2023/09/10 01:09:15;;;;;;;11.70;5.68;;;22.70;99.90;;;;;;7391097;19;20222;-76
2023/09/10 01:11:59;;;;;;;8.25;5.75;;;22.60;99.90;;;;;;7386702;19;20166;-77
2023/09/10 01:15:03;;;;;;;9.35;5.70;;;22.60;99.90;;;;;;7386169;19;20162;-77
2023/09/10 01:17:54;;;;;;;6.47;5.20;;;22.10;99.90;;;;;;7385707;19;20142;-76
2023/09/10 01:20:37;;;;;;;8.93;5.53;;;22.00;99.90;;;;;;7384684;19;20155;-76
2023/09/10 01:23:14;;;;;;;6.43;5.40;;;22.10;99.90;;;;;;7387607;19;20138;-75
2023/09/10 01:25:40;;;;;;;7.88;5.45;;;22.10;99.90;;;;;;7388767;19;20138;-76
2023/09/10 01:28:06;;;;;;;6.05;5.40;;;22.20;99.90;;;;;;7387492;19;20135;-76
2023/09/10 01:30:33;;;;;;;6.60;5.30;;;22.20;99.90;;;;;;7388353;19;20508;-76
2023/09/10 01:33:21;;;;;;;8.85;5.30;;;22.10;99.90;;;;;;7385870;19;20146;-77
2023/09/10 01:36:07;;;;;;;9.07;5.47;;;22.30;99.90;;;;;;7388457;19;20177;-76
2023/09/10 01:38:41;;;;;;;6.85;4.80;;;22.10;99.90;;;;;;7390418;19;20139;-76
2023/09/10 01:41:14;;;;;;;10.05;5.15;;;22.00;99.90;;;;;;7388005;19;20145;-76
2023/09/10 01:43:40;;;;;;;8.65;5.40;;;22.10;99.90;;;;;;7386179;19;20238;-76
2023/09/10 01:46:07;;;;;;;9.57;4.65;;;22.00;99.90;;;;;;7387160;19;20477;-76
2023/09/10 01:48:33;;;;;;;5.50;4.95;;;22.00;99.90;;;;;;7389068;19;20135;-76
2023/09/10 01:50:59;;;;;;;10.57;5.18;;;22.10;99.90;;;;;;7388158;19;20167;-76
2023/09/10 01:53:25;;;;;;;8.18;6.20;;;22.00;99.90;;;;;;7385267;19;20142;-75
2023/09/10 01:55:52;;;;;;;7.78;5.90;;;21.90;99.90;;;;;;7385370;19;20138;-75
2023/09/10 01:58:17;;;;;;;9.57;5.88;;;21.80;99.90;;;;;;7388790;19;20624;-76
2023/09/10 02:00:45;;;;;;;7.30;5.32;;;21.50;99.90;;;;;;7388330;19;20130;-75
2023/09/10 02:03:11;;;;;;;8.27;5.18;;;21.70;99.90;;;;;;7385986;19;20465;-75
2023/09/10 02:05:37;;;;;;;7.30;5.70;;;21.70;99.90;;;;;;7386247;19;20242;-76
2023/09/10 02:08:06;;;;;;;11.10;6.70;;;21.60;99.90;;;;;;7387009;19;20595;-76
2023/09/10 02:10:33;;;;;;;9.15;6.63;;;21.60;99.90;;;;;;7385974;19;20145;-76
2023/09/10 02:12:58;;;;;;;7.18;5.78;;;21.60;99.90;;;;;;7388322;19;20450;-76
2023/09/10 02:15:25;;;;;;;7.68;6.63;;;21.70;99.90;;;;;;7386583;19;20123;-76
2023/09/10 02:17:53;;;;;;;8.88;6.22;;;21.70;99.90;;;;;;7385339;19;20143;-76
2023/09/10 02:20:19;;;;;;;9.00;6.28;;;21.50;99.90;;;;;;7388146;19;20485;-75
2023/09/10 02:22:45;;;;;;;7.90;6.57;;;21.50;99.90;;;;;;7387778;19;20142;-75
2023/09/10 02:25:10;;;;;;;7.40;6.38;;;21.40;99.90;;;;;;7385075;19;20147;-75
2023/09/10 02:27:36;;;;;;;10.55;6.30;;;21.60;99.90;;;;;;7385748;19;20475;-75
2023/09/10 02:30:03;;;;;;;6.72;5.43;;;21.80;99.90;;;;;;7385949;19;20206;-75
2023/09/10 02:32:30;;;;;;;9.27;6.18;;;22.00;99.90;;;;;;7385869;19;20663;-75
2023/09/10 02:34:56;;;;;;;10.13;5.50;;;22.10;99.90;;;;;;7385052;19;20142;-76
2023/09/10 02:37:22;;;;;;;6.68;4.95;;;22.10;99.90;;;;;;7385028;19;20130;-75
2023/09/10 02:39:48;;;;;;;6.85;5.03;;;21.90;99.90;;;;;;7388626;19;20130;-75
2023/09/10 02:42:15;;;;;;;7.15;5.50;;;21.80;99.90;;;;;;7384484;19;20137;-76
2023/09/10 02:44:40;;;;;;;8.40;5.43;;;21.70;99.90;;;;;;7385676;19;20131;-76
2023/09/10 02:47:06;;;;;;;7.03;5.28;;;21.70;99.90;;;;;;7387879;19;20127;-75
2023/09/10 02:49:33;;;;;;;8.20;5.45;;;21.70;99.90;;;;;;7386677;19;20138;-76
2023/09/10 02:51:58;;;;;;;6.70;5.93;;;21.40;99.90;;;;;;7388326;19;20131;-76
2023/09/10 02:54:24;;;;;;;8.13;5.57;;;21.30;99.90;;;;;;7383035;19;20147;-76
2023/09/10 02:56:50;;;;;;;7.03;5.03;;;21.20;99.90;;;;;;7384421;19;20147;-75
2023/09/10 02:59:25;;;;;;;10.50;5.05;;;21.10;99.90;;;;;;7387309;19;20146;-76
2023/09/10 03:01:51;;;;;;;5.68;5.00;;;21.10;99.90;;;;;;7386378;19;20153;-76
2023/09/10 03:04:17;;;;;;;5.93;5.10;;;21.10;99.90;;;;;;7383503;19;20158;-75
2023/09/10 03:06:48;;;;;;;8.00;5.25;;;21.20;99.90;;;;;;7384796;19;20150;-76
2023/09/10 03:09:17;;;;;;;7.50;6.20;;;21.40;99.90;;;;;;7382617;19;20783;-76
2023/09/10 03:11:44;;;;;;;6.88;5.68;;;21.70;99.90;;;;;;7385003;19;20217;-76
2023/09/10 03:14:10;;;;;;;7.32;5.30;;;21.80;99.90;;;;;;7385335;19;20202;-76
2023/09/10 03:16:38;;;;;;;7.22;5.43;;;21.70;99.90;;;;;;7382807;19;20138;-76
2023/09/10 03:19:04;;;;;;;7.65;6.00;;;21.30;99.90;;;;;;7391912;19;20146;-76
2023/09/10 03:21:30;;;;;;;8.77;5.88;;;21.20;99.90;;;;;;7393734;19;20468;-76
2023/09/10 03:23:57;;;;;;;9.30;5.43;;;21.10;99.90;;;;;;7392591;19;20155;-76
2023/09/10 03:26:23;;;;;;;8.50;5.80;;;21.20;99.90;;;;;;7391203;19;20139;-76
2023/09/10 03:28:49;;;;;;;8.60;6.00;;;21.20;99.90;;;;;;7392143;19;20146;-76
2023/09/10 03:31:14;;;;;;;10.48;6.97;;;21.00;99.90;;;;;;7391486;19;20126;-76
2023/09/10 03:33:43;;;;;;;8.68;5.90;;;21.00;99.90;;;;;;7387908;19;20142;-76
2023/09/10 03:36:09;;;;;;;8.90;6.40;;;21.00;99.90;;;;;;7390213;19;20159;-76
2023/09/10 03:38:35;;;;;;;9.45;6.72;;;20.90;99.90;;;;;;7392429;19;20166;-76
2023/09/10 03:41:01;;;;;;;9.57;6.80;;;20.70;99.90;;;;;;7391399;19;20679;-76
2023/09/10 03:43:27;;;;;;;11.68;6.32;;;20.80;99.90;;;;;;7389949;19;20143;-75
2023/09/10 03:45:52;;;;;;;10.25;6.60;;;21.10;99.90;;;;;;7390978;19;20591;-75
2023/09/10 03:48:18;;;;;;;8.65;6.57;;;21.30;99.90;;;;;;7390605;19;20137;-76
2023/09/10 03:50:44;;;;;;;8.43;7.22;;;21.40;99.90;;;;;;7393034;19;20331;-76
2023/09/10 03:53:09;;;;;;;9.15;6.88;;;21.20;99.90;;;;;;7390932;19;20133;-76
2023/09/10 03:55:35;;;;;;;8.30;6.63;;;21.00;99.90;;;;;;7388814;19;20143;-76
2023/09/10 03:58:01;;;;;;;9.88;6.78;;;21.10;99.90;;;;;;7389404;19;20217;-76
2023/09/10 04:00:27;;;;;;;8.13;6.75;;;21.10;99.90;;;;;;7389244;19;20608;-76
2023/09/10 04:02:52;;;;;;;7.20;5.93;;;21.10;99.90;;;;;;7391740;19;20153;-76
2023/09/10 04:05:18;;;;;;;8.65;6.78;;;21.10;99.90;;;;;;7390967;19;20174;-75
2023/09/10 04:07:44;;;;;;;6.78;6.10;;;20.90;99.90;;;;;;7391452;19;20146;-75
2023/09/10 04:10:10;;;;;;;6.97;5.90;;;20.90;99.90;;;;;;7392327;19;20256;-75
2023/09/10 04:12:37;;;;;;;6.40;5.20;;;21.00;99.90;;;;;;7391693;19;21060;-76
2023/09/10 04:15:04;;;;;;;8.63;6.20;;;20.80;99.90;;;;;;7391499;19;20168;-76
2023/09/10 04:17:30;;;;;;;7.00;5.60;;;20.60;99.90;;;;;;7388237;19;20162;-76
2023/09/10 04:19:59;;;;;;;6.88;5.63;;;20.60;99.90;;;;;;7390995;19;20496;-75
2023/09/10 04:22:26;;;;;;;7.53;5.20;;;20.60;99.90;;;;;;7392730;19;20156;-76
2023/09/10 04:24:52;;;;;;;9.48;5.45;;;20.70;99.90;;;;;;7392575;19;20497;-75
2023/09/10 04:27:18;;;;;;;6.35;5.53;;;20.80;99.90;;;;;;7390595;19;20135;-75
2023/09/10 04:29:43;;;;;;;7.32;5.68;;;20.80;99.90;;;;;;7385236;19;20139;-76
2023/09/10 04:32:09;;;;;;;7.68;5.68;;;20.80;99.90;;;;;;7391223;19;20613;-77
2023/09/10 04:34:35;;;;;;;9.48;6.53;;;20.70;99.90;;;;;;7389106;19;20155;-76
2023/09/10 04:37:03;;;;;;;6.30;5.68;;;20.80;99.90;;;;;;7388966;19;20135;-76
2023/09/10 04:39:29;;;;;;;8.80;5.93;;;20.80;99.90;;;;;;7389299;19;20587;-76
2023/09/10 04:41:54;;;;;;;10.63;6.05;;;20.80;99.90;;;;;;7389329;19;20139;-75
2023/09/10 04:44:22;;;;;;;9.07;5.70;;;20.50;99.90;;;;;;7391244;19;20289;-76
2023/09/10 04:46:47;;;;;;;7.10;6.15;;;20.30;99.90;;;;;;7390800;19;20138;-76
2023/09/10 04:49:13;;;;;;;9.20;5.88;;;20.30;99.90;;;;;;7392091;19;20149;-76
2023/09/10 04:51:39;;;;;;;7.70;6.00;;;20.20;99.90;;;;;;7389204;19;20546;-76
2023/09/10 04:54:05;;;;;;;9.45;5.90;;;20.30;99.90;;;;;;7390150;19;20488;-75
2023/09/10 04:56:30;;;;;;;11.52;5.88;;;20.30;99.90;;;;;;7388462;19;20134;-76
2023/09/10 04:58:57;;;;;;;6.65;5.72;;;20.30;99.90;;;;;;7387828;19;20134;-76
2023/09/10 05:01:23;;;;;;;6.70;5.68;;;20.20;99.90;;;;;;7389629;19;20148;-76
2023/09/10 05:03:49;;;;;;;7.45;5.97;;;20.20;99.90;;;;;;7389316;19;20142;-76
2023/09/10 05:06:15;;;;;;;7.80;5.95;;;20.50;99.90;;;;;;7387999;19;20475;-76
2023/09/10 05:08:41;;;;;;;6.60;5.18;;;20.50;99.90;;;;;;7390045;19;20131;-75
2023/09/10 05:11:06;;;;;;;6.60;5.93;;;20.50;99.90;;;;;;7388815;19;20151;-76
2023/09/10 05:13:32;;;;;;;9.02;6.90;;;20.40;99.90;;;;;;7389144;19;20572;-75
2023/09/10 05:15:58;;;;;;;12.48;7.63;;;20.60;99.90;;;;;;7390406;19;20126;-76
2023/09/10 05:18:25;;;;;;;8.75;7.05;;;20.90;99.90;;;;;;7389107;19;20187;-76
2023/09/10 05:20:52;;;;;;;11.68;6.97;;;20.90;99.90;;;;;;7388821;19;20600;-76
2023/09/10 05:23:22;;;;;;;8.77;6.70;;;20.80;99.90;;;;;;7390627;19;20466;-75
2023/09/10 05:25:49;;;;;;;8.38;6.78;;;20.60;99.90;;;;;;7387594;19;20137;-75
2023/09/10 05:28:15;;;;;;;9.82;6.65;;;20.70;99.90;;;;;;7389200;19;20126;-76
2023/09/10 05:30:40;;;;;;;11.20;7.05;;;20.90;99.90;;;;;;7388232;19;20131;-76
2023/09/10 05:33:06;;;;;;;13.68;6.95;;;20.70;99.90;;;;;;7389457;19;20135;-76
2023/09/10 05:35:32;;;;;;;9.23;6.30;;;21.00;99.90;;;;;;7387776;19;20147;-76
2023/09/10 05:37:58;;;;;;;8.50;6.65;;;20.90;99.90;;;;;;7385539;19;20134;-75
2023/09/10 05:40:25;;;;;;;10.38;7.32;;;20.90;99.90;;;;;;7387862;19;20138;-75
2023/09/10 05:42:51;;;;;;;8.43;7.00;;;21.00;99.90;;;;;;7387393;19;20154;-76
2023/09/10 05:45:17;;;;;;;8.32;7.05;;;21.10;99.90;;;;;;7386542;19;20153;-76
2023/09/10 05:47:43;;;;;;;9.25;7.35;;;21.00;99.90;;;;;;7387088;19;20134;-75
2023/09/10 05:50:09;;;;;;;8.95;7.03;;;21.10;99.90;;;;;;7381120;19;20206;-76
2023/09/10 05:52:35;;;;;;;12.45;8.13;;;21.30;99.90;;;;;;7388475;19;20154;-76
2023/09/10 05:55:01;;;;;;;8.90;7.35;;;21.40;99.90;;;;;;7389336;19;20138;-75
2023/09/10 05:57:27;;;;;;;9.95;7.93;;;21.30;99.90;;;;;;7385307;19;20591;-76
2023/09/10 05:59:53;;;;;;;10.10;7.80;;;21.40;99.90;;;;;;7386234;19;20131;-75
2023/09/10 06:02:18;;;;;;;9.82;7.90;;;21.40;99.90;;;;;;7388540;19;20522;-76
2023/09/10 06:04:44;;;;;;;11.63;8.30;;;21.40;99.90;;;;;;7384324;19;20174;-75
2023/09/10 06:07:10;;;;;;;10.85;7.80;;;21.50;99.90;;;;;;7389495;19;20134;-74
2023/09/10 06:09:36;;;;;;;9.32;7.90;;;21.40;99.90;;;;;;7387791;19;20275;-74
2023/09/10 06:12:04;;;;;;;10.60;6.95;;;21.40;99.90;;;;;;7385975;19;20169;-74
2023/09/10 06:14:33;;;;;;;10.90;8.10;;;21.50;99.90;;;;;;7388695;19;20163;-75
2023/09/10 06:17:00;;;;;;;11.48;8.43;;;21.50;99.90;;;;;;7386275;19;20431;-74
2023/09/10 06:19:25;;;;;;;10.50;8.23;;;21.40;99.90;;;;;;7388309;19;20196;-73
2023/09/10 06:21:51;;;;;;;11.70;8.23;;;21.50;99.90;;;;;;7389540;19;20138;-74
2023/09/10 06:24:17;;;;;;;12.68;8.13;;;21.60;99.90;;;;;;7384702;19;20810;-74
2023/09/10 06:26:43;;;;;;;9.05;7.75;;;21.50;99.90;;;;;;7388470;19;20131;-74
2023/09/10 06:29:09;;;;;;;9.32;7.65;;;21.50;99.90;;;;;;7385161;19;20138;-75
2023/09/10 06:31:34;;;;;;;9.13;7.85;;;21.50;99.90;;;;;;7388911;19;20595;-74
2023/09/10 06:34:00;;;;;;;10.10;8.18;;;21.50;99.90;;;;;;7384091;19;20130;-76
2023/09/10 06:36:26;;;;;;;11.02;7.60;;;21.50;99.90;;;;;;7385224;19;20134;-74
2023/09/10 06:38:52;;;;;;;8.90;7.65;;;21.50;99.90;;;;;;7387638;19;20138;-76
2023/09/10 06:41:18;;;;;;;10.55;7.43;;;21.30;99.90;;;;;;7386860;19;20168;-76
2023/09/10 06:43:44;;;;;;;11.50;8.75;;;21.10;99.90;;;;;;7386647;19;20131;-76
2023/09/10 06:46:10;;;;;;;12.40;9.05;;;21.30;99.90;;;;;;7387329;19;20166;-76
2023/09/10 06:48:36;;;;;;;10.50;7.78;;;21.50;99.90;;;;;;7386458;19;20142;-75
2023/09/10 06:51:02;;;;;;;9.40;8.02;;;21.60;99.90;;;;;;7386280;19;20149;-74
2023/09/10 06:53:33;;;;;;;10.88;7.63;;;21.60;99.90;;;;;;7390832;19;20143;-75
2023/09/10 06:55:59;;;;;;;12.25;9.05;;;21.80;99.90;;;;;;7395560;19;20144;-75
2023/09/10 06:58:25;;;;;;;12.55;8.82;;;21.80;99.90;;;;;;7395209;19;20194;-75
2023/09/10 07:00:50;;;;;;;13.73;9.88;;;21.80;99.90;;;;;;7391866;19;20157;-74
2023/09/10 07:03:16;;;;;;;13.82;9.02;;;21.80;99.90;;;;;;7393874;19;20639;-75
2023/09/10 07:05:44;;;;;;;11.07;8.90;;;21.80;99.90;;;;;;7390279;19;20549;-75
2023/09/10 07:08:11;;;;;;;11.75;9.57;;;21.80;99.90;;;;;;7393991;19;20198;-75
2023/09/10 07:10:37;;;;;;;12.70;9.18;;;21.90;99.90;;;;;;7394113;19;20146;-75
2023/09/10 07:13:05;;;;;;;12.45;8.48;;;21.90;99.90;;;;;;7392697;19;20150;-75
2023/09/10 07:15:35;;;;;;;11.60;8.48;;;22.00;99.90;;;;;;7391687;19;20471;-75
2023/09/10 07:18:00;;;;;;;13.38;8.27;;;22.00;99.90;;;;;;7390074;19;20589;-75
2023/09/10 07:20:27;;;;;;;11.52;8.65;;;22.00;99.90;;;;;;7391788;19;20146;-75
2023/09/10 07:22:54;;;;;;;9.52;8.02;;;22.10;99.90;;;;;;7394019;19;20599;-75
2023/09/10 07:25:19;;;;;;;11.80;8.50;;;22.10;99.90;;;;;;7392768;19;20135;-75
2023/09/10 07:27:45;;;;;;;8.95;8.05;;;22.10;99.90;;;;;;7388565;19;20623;-74
2023/09/10 07:30:11;;;;;;;10.77;7.68;;;22.10;99.90;;;;;;7392146;19;20135;-75
2023/09/10 07:32:38;;;;;;;11.23;8.35;;;22.20;99.90;;;;;;7390349;19;20202;-75
2023/09/10 07:35:04;;;;;;;9.25;7.43;;;22.30;99.90;;;;;;7393278;19;20138;-75
2023/09/10 07:37:29;;;;;;;11.73;8.50;;;22.30;99.90;;;;;;7387886;19;20151;-76
2023/09/10 07:39:55;;;;;;;9.27;7.60;;;22.40;99.90;;;;;;7392992;19;20572;-76
2023/09/10 07:42:21;;;;;;;10.65;7.90;;;22.40;99.90;;;;;;7391918;19;20167;-75
2023/09/10 07:44:47;;;;;;;10.80;8.00;;;22.50;99.90;;;;;;7393202;19;20147;-75
2023/09/10 07:47:12;;;;;;;10.88;7.15;;;22.50;99.90;;;;;;7389787;19;20155;-77
2023/09/10 07:49:38;;;;;;;8.27;7.00;;;22.60;99.90;;;;;;7389863;19;20142;-75
2023/09/10 07:52:04;;;;;;;8.07;6.85;;;22.80;99.90;;;;;;7392431;19;20213;-76
2023/09/10 07:54:31;;;;;;;12.13;7.28;;;22.90;99.90;;;;;;7390425;19;20173;-77
2023/09/10 07:56:57;;;;;;;10.18;7.20;;;23.10;99.90;;;;;;7391268;19;20155;-76
2023/09/10 07:59:23;;;;;;;11.00;7.72;;;23.30;99.90;;;;;;7389931;19;20498;-78
2023/09/10 08:01:49;;;;;;;10.50;8.02;;;23.50;99.90;;;;;;7392675;19;20222;-76
2023/09/10 08:04:15;;;;;;;8.95;7.57;;;23.70;99.90;;;;;;7383819;19;20778;-77
2023/09/10 08:06:41;;;;;;;11.98;7.47;;;24.00;99.90;;;;;;7386809;19;20139;-78
2023/09/10 08:09:07;;;;;;;8.00;6.78;;;24.30;99.90;;;;;;7388596;19;20142;-76
2023/09/10 08:11:33;;;;;;;10.15;6.93;;;24.50;99.90;;;;;;7389922;19;20146;-77
2023/09/10 08:13:59;;;;;;;12.15;7.18;;;24.50;99.90;;;;;;7389264;19;20130;-77
2023/09/10 08:16:25;;;;;;;8.77;7.03;;;24.60;99.90;;;;;;7390214;19;20141;-77
2023/09/10 08:18:51;;;;;;;7.72;6.80;;;24.60;99.90;;;;;;7390210;19;20158;-77
2023/09/10 08:21:16;;;;;;;8.88;7.30;;;24.50;99.90;;;;;;7389877;19;20138;-77
2023/09/10 08:23:43;;;;;;;10.68;6.57;;;24.50;99.90;;;;;;7390913;19;20150;-78
2023/09/10 08:26:12;;;;;;;8.80;6.85;;;24.60;99.90;;;;;;7389634;19;20138;-79
2023/09/10 08:28:37;;;;;;;9.82;6.70;;;24.70;99.90;;;;;;7392235;19;20138;-78
2023/09/10 08:31:04;;;;;;;9.23;6.57;;;24.60;99.90;;;;;;7389336;19;20138;-78
2023/09/10 08:33:29;;;;;;;9.55;6.05;;;24.70;99.90;;;;;;7389993;19;20193;-78
2023/09/10 08:35:55;;;;;;;7.15;6.35;;;24.70;99.90;;;;;;7390671;19;20138;-79
2023/09/10 08:38:22;;;;;;;8.57;6.28;;;24.70;99.90;;;;;;7391264;19;20130;-79
2023/09/10 08:41:03;;;;;;;9.07;6.45;;;24.70;99.90;;;;;;7392363;19;20598;-79
2023/09/10 08:43:41;;;;;;;6.47;5.82;;;24.70;99.90;;;;;;7388712;19;20618;-79
2023/09/10 08:46:09;;;;;;;9.55;6.53;;;24.70;99.90;;;;;;7389454;19;20158;-77
2023/09/10 08:48:40;;;;;;;8.20;5.85;;;24.80;99.90;;;;;;7388016;19;21029;-78
2023/09/10 08:51:07;;;;;;;10.70;6.60;;;24.80;99.90;;;;;;7389321;19;20146;-77
2023/09/10 08:53:36;;;;;;;10.73;6.63;;;24.90;99.90;;;;;;7389285;19;20154;-78
2023/09/10 08:56:04;;;;;;;6.78;6.07;;;25.10;99.90;;;;;;7388130;19;20146;-79
2023/09/10 08:58:31;;;;;;;9.73;6.20;;;25.30;99.90;;;;;;7389817;19;20538;-79
2023/09/10 09:01:00;;;;;;;8.15;6.63;;;25.30;99.90;;;;;;7387779;19;20584;-80
2023/09/10 09:03:28;;;;;;;6.60;5.40;;;25.30;99.90;;;;;;7393194;19;20588;-77
2023/09/10 09:05:57;;;;;;;8.88;6.38;;;25.40;99.90;;;;;;7388255;19;20170;-78
2023/09/10 09:08:29;;;;;;;6.68;6.00;;;25.60;99.90;;;;;;7390340;19;20122;-81
2023/09/10 09:10:54;;;;;;;8.60;6.20;;;25.70;99.90;;;;;;7389092;19;20149;-79
2023/09/10 09:13:21;;;;;;;10.38;6.97;;;25.80;99.90;;;;;;7387732;19;20261;-79
2023/09/10 09:15:48;;;;;;;7.97;6.40;;;25.80;99.90;;;;;;7383704;19;20675;-77
2023/09/10 09:18:15;;;;;;;7.03;6.07;;;25.90;99.90;;;;;;7384468;19;20198;-76
2023/09/10 09:20:48;;;;;;;8.30;5.78;;;25.90;99.90;;;;;;7386932;19;20169;-79
2023/09/10 09:23:27;;;;;;;8.48;7.22;;;26.00;99.90;;;;;;7385561;19;20214;-78
2023/09/10 09:26:01;;;;;;;11.18;6.82;;;26.10;99.90;;;;;;7389981;19;20142;-80
2023/09/10 09:28:30;;;;;;;6.72;6.00;;;26.30;99.90;;;;;;7387890;19;20131;-79
2023/09/10 09:30:56;;;;;;;6.95;5.60;;;26.30;99.90;;;;;;7391342;19;20131;-79
2023/09/10 09:33:21;;;;;;;7.10;5.68;;;26.30;99.90;;;;;;7385163;19;20217;-79
2023/09/10 09:35:47;;;;;;;10.77;6.20;;;26.50;99.90;;;;;;7389747;19;20478;-81
2023/09/10 09:38:15;;;;;;;9.23;5.97;;;26.60;99.90;;;;;;7384086;19;20142;-81
2023/09/10 09:40:42;;;;;;;7.45;6.13;;;26.70;99.90;;;;;;7388042;19;20149;-80
2023/09/10 09:43:09;;;;;;;7.82;6.10;;;26.60;99.90;;;;;;7390372;19;20142;-81
2023/09/10 09:45:39;;;;;;;7.75;5.82;;;26.70;99.90;;;;;;7388272;19;20138;-79
2023/09/10 09:48:06;;;;;;;6.43;5.00;;;26.50;99.90;;;;;;7387179;19;20138;-80
2023/09/10 09:50:32;;;;;;;8.45;5.55;;;26.50;99.90;;;;;;7386176;19;20138;-79
2023/09/10 09:52:58;;;;;;;8.05;5.43;;;26.50;99.90;;;;;;7389801;19;20547;-79
2023/09/10 09:55:24;;;;;;;9.65;7.20;;;26.70;99.90;;;;;;7389841;19;20194;-79
2023/09/10 09:57:50;;;;;;;7.32;5.32;;;26.60;99.90;;;;;;7386540;19;20575;-81
2023/09/10 10:00:16;;;;;;;9.00;6.30;;;26.60;99.90;;;;;;7387886;19;20137;-80
2023/09/10 10:02:43;;;;;;;8.65;5.47;;;26.70;99.90;;;;;;7386488;19;20154;-79
2023/09/10 10:05:09;;;;;;;8.35;6.30;;;26.90;99.90;;;;;;7386538;19;20174;-81
2023/09/10 10:07:40;;;;;;;6.65;4.93;;;27.10;99.90;;;;;;7386716;19;20174;-80
2023/09/10 10:10:07;;;;;;;6.55;4.93;;;27.10;99.90;;;;;;7385119;19;20507;-80
2023/09/10 10:12:35;;;;;;;5.65;4.00;;;27.00;99.90;;;;;;7387535;19;20678;-82
2023/09/10 10:15:02;;;;;;;7.68;6.00;;;27.10;99.90;;;;;;7388736;19;20533;-79
2023/09/10 10:17:29;;;;;;;6.63;5.20;;;27.20;99.90;;;;;;7384050;19;20297;-79
2023/09/10 10:19:56;;;;;;;7.45;5.13;;;27.20;99.90;;;;;;7388869;19;20146;-79
2023/09/10 10:22:22;;;;;;;8.68;5.25;;;27.20;99.90;;;;;;7388898;19;20131;-79
2023/09/10 10:24:50;;;;;;;10.20;7.65;;;27.10;99.90;;;;;;7388786;19;20606;-80
2023/09/10 10:27:16;;;;;;;7.32;4.57;;;27.10;99.90;;;;;;7383499;19;20138;-79
2023/09/10 10:29:48;;;;;;;6.40;4.47;;;27.20;99.90;;;;;;7387183;19;20157;-82
2023/09/10 10:32:30;;;;;;;7.60;4.85;;;27.30;99.90;;;;;;7387355;19;20157;-76
2023/09/10 10:35:00;;;;;;;9.25;7.45;;;27.30;99.90;;;;;;7387624;19;20203;-80
2023/09/10 10:37:51;;;;;;;5.65;4.95;;;27.50;99.90;;;;;;7383938;19;20138;-77
2023/09/10 10:40:19;;;;;;;7.22;5.93;;;27.50;99.90;;;;;;7388608;19;20166;-78
2023/09/10 10:43:07;;;;;;;8.57;4.75;;;27.70;99.90;;;;;;7385664;19;20155;-81
2023/09/10 10:45:34;;;;;;;6.18;5.00;;;27.80;99.90;;;;;;7385535;19;20556;-78
2023/09/10 10:48:19;;;;;;;8.13;5.45;;;27.90;99.90;;;;;;7385016;19;20147;-80
2023/09/10 10:50:46;;;;;;;6.63;5.05;;;27.80;99.90;;;;;;7387438;19;20135;-77
2023/09/10 10:53:23;;;;;;;10.30;5.63;;;27.70;99.90;;;;;;7386322;19;20143;-80
2023/09/10 10:55:55;;;;;;;6.38;5.07;;;27.70;99.90;;;;;;7385355;19;20177;-79
2023/09/10 10:58:25;;;;;;;7.63;4.70;;;27.70;99.90;;;;;;7384977;19;20139;-78
2023/09/10 11:00:52;;;;;;;5.20;4.53;;;27.70;99.90;;;;;;7384132;19;20202;-78
2023/09/10 11:03:20;;;;;;;6.63;4.18;;;28.00;99.90;;;;;;7385396;19;20157;-78
2023/09/10 11:05:53;;;;;;;7.35;5.50;;;28.20;99.90;;;;;;7384569;19;20171;-79
2023/09/10 11:08:28;;;;;;;6.43;4.75;;;28.30;99.90;;;;;;7385995;19;20143;-79
2023/09/10 11:10:55;;;;;;;6.70;4.90;;;28.30;99.90;;;;;;7385481;19;20174;-81
2023/09/10 11:13:23;;;;;;;6.18;5.05;;;28.40;99.90;;;;;;7383228;19;20161;-80
2023/09/10 11:16:04;;;;;;;9.52;5.60;;;28.20;99.90;;;;;;7386781;19;20744;-79
2023/09/10 11:18:36;;;;;;;5.65;4.55;;;28.10;99.90;;;;;;7385533;19;20151;-78
2023/09/10 11:21:05;;;;;;;6.13;3.80;;;28.10;99.90;;;;;;7384172;19;20535;-79
2023/09/10 11:23:32;;;;;;;5.40;4.60;;;28.10;99.90;;;;;;7382283;19;20151;-79
2023/09/10 11:26:13;;;;;;;6.78;4.40;;;28.30;99.90;;;;;;7385717;19;20135;-79
2023/09/10 11:28:59;;;;;;;11.10;5.40;;;28.50;99.90;;;;;;7385230;19;20254;-78
2023/09/10 11:31:46;;;;;;;7.03;4.57;;;28.60;99.90;;;;;;7387006;19;20134;-79
2023/09/10 11:34:18;;;;;;;6.55;5.00;;;28.80;99.90;;;;;;7387198;19;20306;-79
2023/09/10 11:36:55;;;;;;;7.53;4.82;;;28.90;99.90;;;;;;7388052;19;20133;-79
2023/09/10 11:39:23;;;;;;;8.93;4.63;;;28.70;99.90;;;;;;7390768;19;20134;-78
2023/09/10 11:41:54;;;;;;;6.10;4.55;;;28.60;99.90;;;;;;7392828;19;20881;-79
2023/09/10 11:44:20;;;;;;;7.03;4.80;;;28.60;99.90;;;;;;7391356;19;20142;-78
2023/09/10 11:46:46;;;;;;;8.35;4.57;;;28.60;99.90;;;;;;7391120;19;20146;-79
2023/09/10 11:49:13;;;;;;;6.90;4.15;;;28.60;99.90;;;;;;7392627;19;20194;-79
2023/09/10 11:51:43;;;;;;;7.50;5.18;;;28.80;99.90;;;;;;7392436;19;20645;-79
2023/09/10 11:54:13;;;;;;;6.20;4.78;;;28.90;99.90;;;;;;7391809;19;20479;-79
2023/09/10 11:56:40;;;;;;;5.97;5.28;;;28.90;99.90;;;;;;7392606;19;20480;-79
2023/09/10 11:59:06;;;;;;;7.55;4.90;;;28.90;99.90;;;;;;7392356;19;21993;-79
2023/09/10 12:01:32;;;;;;;5.30;4.53;;;29.00;99.90;;;;;;7390401;19;20154;-79
2023/09/10 12:03:58;;;;;;;6.65;5.03;;;29.00;99.90;;;;;;7390879;19;20138;-78
2023/09/10 12:06:24;;;;;;;7.00;5.78;;;29.00;99.90;;;;;;7391837;19;20154;-81
2023/09/10 12:08:49;;;;;;;5.18;4.15;;;29.10;99.90;;;;;;7391777;19;20157;-78
2023/09/10 12:11:17;;;;;;;7.50;4.72;;;29.10;99.90;;;;;;7392129;19;20483;-80
2023/09/10 12:13:43;;;;;;;8.07;4.82;;;29.00;99.90;;;;;;7391469;19;20181;-78
2023/09/10 12:16:11;;;;;;;6.97;5.28;;;28.90;99.90;;;;;;7391619;19;20606;-78
2023/09/10 12:18:37;;;;;;;5.60;4.88;;;29.00;99.90;;;;;;7391579;19;20202;-78
2023/09/10 12:21:05;;;;;;;6.63;5.15;;;29.20;99.90;;;;;;7391500;19;20150;-80
2023/09/10 12:23:31;;;;;;;6.65;5.15;;;29.30;99.90;;;;;;7389083;19;20591;-80
2023/09/10 12:26:00;;;;;;;6.95;4.90;;;29.30;99.90;;;;;;7392461;19;20222;-77
2023/09/10 12:28:26;;;;;;;9.30;5.40;;;29.30;99.90;;;;;;7391936;19;20141;-79
2023/09/10 12:30:52;;;;;;;6.68;4.97;;;29.40;99.90;;;;;;7390682;19;21524;-79
2023/09/10 12:33:21;;;;;;;6.28;4.60;;;29.40;99.90;;;;;;7391327;19;20177;-79
2023/09/10 12:35:47;;;;;;;6.70;4.60;;;29.30;99.90;;;;;;7391172;19;20130;-79
2023/09/10 12:38:17;;;;;;;7.65;5.00;;;29.20;99.90;;;;;;7388286;19;20210;-80
2023/09/10 12:40:44;;;;;;;4.93;4.28;;;29.20;99.90;;;;;;7390996;19;20222;-79
2023/09/10 12:43:10;;;;;;;6.05;4.35;;;29.40;99.90;;;;;;7390419;19;20154;-80
2023/09/10 12:45:36;;;;;;;7.03;4.25;;;29.40;99.90;;;;;;7390286;19;20144;-79
2023/09/10 12:48:04;;;;;;;5.25;4.55;;;29.40;99.90;;;;;;7390248;19;20142;-79